Latest Weather Observations for Wagga Wagga

IDN60801

Issued at 5:03 am EDT Wednesday 13 November 2019 (issued every 10 minutes, with the page automatically refreshed every 10 minutes)

About weather observations | Map of weather stations | Latest weather observations for NSW | Other Formats
Station Details ID: 072150 Name: WAGGA WAGGA AMO Lat: -35.16 Lon: 147.46 Height: 212.0 m
Data from the previous 72 hours. | See also: Recent months at Wagga Wagga
Date/Time
EDT
Temp
°C
App
Temp
°C
Dew
Point
°C
Rel
Hum
%
Delta-T
°C
Wind Press
QNH
hPa
Press
MSL
hPa
Rain since
9am
mm
Dir  Spd
km/h
Gust
km/h
Spd
kts
Gust
kts
13/05:00am 7.9 2.9 1.1 62 2.8 SW 17 22 9 12 1015.9 1015.3 0.0
13/04:30am 8.8 2.4 0.8 57 3.3 SW 24 32 13 17 1015.8 1015.2 0.0
13/04:00am 8.8 2.0 0.8 57 3.3 SW 26 35 14 19 1015.6 1015.0 0.0
13/03:30am 9.5 2.8 1.7 58 3.3 SW 26 39 14 21 1015.7 1015.1 0.0
13/03:00am 9.4 4.2 2.3 61 3.0 SSW 19 24 10 13 1015.6 1015.0 0.0
13/02:30am 10.2 4.5 2.8 60 3.2 SW 22 32 12 17 1015.2 1014.6 0.0
13/02:00am 10.4 5.2 2.5 58 3.4 SW 19 26 10 14 1014.9 1014.3 0.0
13/01:30am 11.2 4.7 2.5 55 3.8 SW 26 35 14 19 1014.8 1014.2 0.0
13/01:00am 11.8 3.5 2.3 52 4.1 SW 35 50 19 27 1014.6 1014.0 0.0
13/12:30am 13.0 5.6 2.0 47 4.8 SW 30 50 16 27 1014.2 1013.6 0.0
13/12:00am 14.2 6.7 -1.4 34 6.4 WSW 28 35 15 19 1013.4 1012.9 0.0
 
Date/Time
EDT
Temp
°C
App
Temp
°C
Dew
Point
°C
Rel
Hum
%
Delta-T
°C
Wind Press
QNH
hPa
Press
MSL
hPa
Rain since
9am
mm
Dir  Spd
km/h
Gust
km/h
Spd
kts
Gust
kts
12/11:30pm 14.8 6.3 -1.7 32 6.8 WSW 33 48 18 26 1013.0 1012.5 0.0
12/11:00pm 15.0 8.2 -1.5 32 6.8 WSW 24 33 13 18 1012.8 1012.3 0.0
12/10:30pm 15.1 9.1 -1.9 31 7.0 WSW 20 30 11 16 1012.6 1012.1 0.0
12/10:00pm 15.8 7.8 -2.2 29 7.4 WSW 30 39 16 21 1012.4 1011.9 0.0
12/09:58pm 15.9 8.3 -2.1 29 7.4 WSW 28 39 15 21 1012.3 1011.8 0.0
12/09:30pm 15.4 10.5 -0.8 33 6.8 WSW 15 19 8 10 1011.9 1011.4 0.0
12/09:00pm 15.9 10.6 -0.8 32 7.1 SW 17 24 9 13 1011.2 1010.6 0.0
12/08:30pm 17.2 10.5 -1.4 28 7.9 SW 24 33 13 18 1010.7 1010.1 0.0
12/08:00pm 17.9 11.1 -1.9 26 8.4 WSW 24 33 13 18 1010.1 1009.5 0.0
12/07:30pm 18.9 10.5 -2.7 23 9.0 WSW 32 41 17 22 1009.6 1009.0 0.0
12/07:00pm 19.8 10.5 -1.9 23 9.3 WSW 37 48 20 26 1009.0 1008.5 0.0
12/06:36pm 20.4 12.4 -2.0 22 9.6 WSW 30 48 16 26 1008.5 1008.0 0.0
12/06:30pm 20.3 11.8 -2.1 22 9.6 WSW 33 56 18 30 1008.4 1007.9 0.0
12/06:03pm 21.0 12.2 -0.9 23 9.7 W 35 54 19 29 1008.3 1007.8 0.0
12/06:00pm 20.9 11.4 -1.0 23 9.7 W 39 54 21 29 1008.2 1007.7 0.0
12/05:30pm 21.2 12.9 -0.1 24 9.6 WSW 33 48 18 26 1008.0 1007.5 0.0
12/05:16pm 21.0 11.9 -0.3 24 9.5 WSW 37 56 20 30 1007.8 1007.3 0.0
12/05:00pm 21.4 11.1 -1.2 22 10.0 W 43 52 23 28 1007.6 1007.0 0.0
12/04:37pm 22.2 12.4 0.1 23 10.1 WSW 41 61 22 33 1007.3 1006.7 0.0
12/04:30pm 22.0 11.8 -0.1 23 10.0 WSW 43 59 23 32 1007.3 1006.7 0.0
12/04:23pm 22.9 13.2 0.7 23 10.3 WSW 41 59 22 32 1007.1 1006.5 0.0
12/04:00pm 23.3 13.2 0.4 22 10.6 W 43 59 23 32 1006.7 1006.1 0.0
12/03:56pm 23.3 13.5 -0.2 21 10.7 WSW 41 59 22 32 1006.7 1006.1 0.0
12/03:30pm 23.9 13.8 0.3 21 10.9 W 43 59 23 32 1006.5 1005.9 0.0
12/03:11pm 23.6 14.2 2.4 25 10.2 W 41 59 22 32 1006.2 1005.6 0.0
12/03:00pm 23.9 14.0 2.7 25 10.3 W 44 59 24 32 1006.2 1005.6 0.0
12/02:30pm 24.3 15.8 5.1 29 9.8 W 39 57 21 31 1006.0 1005.4 0.0
12/02:00pm 23.5 15.3 4.9 30 9.4 W 37 56 20 30 1005.9 1005.3 0.0
12/01:30pm 24.4 15.8 4.7 28 9.9 WNW 39 57 21 31 1005.8 1005.2 0.0
12/01:08pm 24.2 16.4 5.1 29 9.7 WNW 35 56 19 30 1005.7 1005.1 0.0
12/01:00pm 24.7 17.0 6.9 32 9.4 W 37 52 20 28 1005.8 1005.2 0.0
12/12:30pm 23.5 15.3 6.7 34 8.7 W 39 50 21 27 1006.0 1005.4 0.0
12/12:14pm 24.0 15.8 6.7 33 9.0 W 39 57 21 31 1005.8 1005.2 0.0
12/12:00pm 24.1 15.5 6.4 32 9.2 W 41 54 22 29 1005.6 1005.0 0.0
12/11:32am 25.5 17.4 0.9 20 11.7 W 33 54 18 29 1005.2 1004.6 0.0
12/11:30am 25.3 16.6 -0.7 18 12.0 WNW 35 50 19 27 1005.3 1004.7 0.0
12/11:00am 24.6 14.8 -2.9 16 12.1 WNW 39 50 21 27 1005.2 1004.6 0.0
12/10:30am 25.4 15.9 -4.0 14 12.7 WNW 37 46 20 25 1005.0 1004.4 0.0
12/10:00am 25.3 16.2 -3.2 15 12.6 WNW 35 56 19 30 1005.0 1004.4 0.0
12/09:30am 25.8 16.6 -4.7 13 13.1 NW 35 59 19 32 1005.0 1004.4 0.0
12/09:00am 23.9 18.2 -1.1 19 11.3 NW 19 - 10 - 1005.4 1004.8 0.0
12/08:30am 22.0 16.9 0.5 24 9.9 NNW 17 26 9 14 1005.5 1004.9 0.0
12/08:00am 19.3 15.1 1.8 31 8.1 NNW 13 17 7 9 1005.7 1005.1 0.0
12/07:30am 16.9 15.4 7.0 52 5.0 NNW 4 9 2 5 1005.9 1005.3 0.0
12/07:00am 15.3 13.8 5.0 50 4.9 N 2 7 1 4 1006.2 1005.6 0.0
12/06:30am 13.2 11.2 8.7 74 2.3 NNE 9 13 5 7 1006.4 1005.8 0.0
12/06:00am 12.6 12.0 7.3 70 2.6 CALM 0 0 0 0 1006.5 1005.9 0.0
12/05:30am 14.2 12.1 3.9 50 4.8 N 4 13 2 7 1006.7 1006.1 0.0
12/05:00am 11.4 10.4 7.5 77 1.9 N 2 7 1 4 1007.0 1006.4 0.0
12/04:30am 11.3 10.0 7.6 78 1.8 ENE 4 9 2 5 1007.1 1006.5 0.0
12/04:00am 12.3 9.4 4.5 59 3.6 ESE 9 9 5 5 1007.4 1006.8 0.0
12/03:30am 13.4 10.8 4.3 54 4.2 ESE 7 9 4 5 1007.9 1007.4 0.0
12/03:00am 11.1 10.0 5.0 66 2.8 CALM 0 6 0 3 1008.5 1008.0 0.0
12/02:30am 10.1 7.8 5.5 73 2.1 ENE 7 11 4 6 1008.7 1008.2 0.0
12/02:00am 11.8 10.6 4.8 62 3.2 CALM 0 0 0 0 1008.8 1008.3 0.0
12/01:30am 11.5 10.5 5.8 68 2.7 CALM 0 6 0 3 1009.4 1008.8 0.0
12/01:00am 12.0 9.9 6.7 70 2.6 ENE 7 7 4 4 1009.9 1009.3 0.0
12/12:30am 13.2 12.5 7.0 66 3.0 CALM 0 0 0 0 1010.4 1009.8 0.0
12/12:00am 14.9 13.6 4.0 48 5.1 CALM 0 0 0 0 1010.8 1010.2 0.0
 
Date/Time
EDT
Temp
°C
App
Temp
°C
Dew
Point
°C
Rel
Hum
%
Delta-T
°C
Wind Press
QNH
hPa
Press
MSL
hPa
Rain since
9am
mm
Dir  Spd
km/h
Gust
km/h
Spd
kts
Gust
kts
11/11:30pm 13.0 12.5 7.7 70 2.6 CALM 0 0 0 0 1011.2 1010.6 0.0
11/11:00pm 14.3 14.2 9.3 72 2.6 CALM 0 0 0 0 1011.2 1010.6 0.0
11/10:30pm 14.3 13.5 6.4 59 3.8 CALM 0 0 0 0 1011.3 1010.7 0.0
11/10:00pm 15.5 13.8 7.5 59 4.0 ENE 6 7 3 4 1011.4 1010.8 0.0
11/09:30pm 18.8 15.8 2.2 33 7.7 NE 7 9 4 5 1011.3 1010.7 0.0
11/09:00pm 19.9 16.8 1.4 29 8.5 ENE 7 9 4 5 1011.0 1010.4 0.0
11/08:30pm 22.5 19.1 -0.3 22 10.3 N 7 9 4 5 1011.0 1010.4 0.0
11/08:00pm 23.8 20.5 0.2 21 10.9 NNW 7 9 4 5 1011.1 1010.5 0.0
11/07:30pm 25.0 21.6 -0.9 18 11.8 NNW 7 9 4 5 1011.0 1010.4 0.0
11/07:00pm 26.2 22.0 -0.8 17 12.5 NW 11 13 6 7 1011.0 1010.4 0.0
11/06:30pm 26.8 21.7 -2.0 15 13.1 WNW 15 19 8 10 1010.9 1010.3 0.0
11/06:00pm 27.2 23.3 -1.7 15 13.3 W 9 15 5 8 1011.0 1010.4 0.0
11/05:30pm 26.8 22.1 -2.0 15 13.1 NW 13 22 7 12 1011.3 1010.7 0.0
11/05:00pm 27.3 22.7 -0.7 16 13.1 N 13 24 7 13 1011.4 1010.8 0.0
11/04:30pm 27.5 21.8 -0.5 16 13.1 W 19 39 10 21 1011.6 1011.0 0.0
11/04:00pm 27.0 22.8 1.4 19 12.4 NW 13 22 7 12 1011.9 1011.4 0.0
11/03:30pm 26.5 22.1 0.3 18 12.4 WSW 13 19 7 10 1012.5 1012.0 0.0
11/03:00pm 27.0 22.4 1.4 19 12.4 W 15 28 8 15 1012.9 1012.4 0.0
11/02:30pm 26.2 22.7 1.5 20 11.9 WNW 9 24 5 13 1013.5 1013.0 0.0
11/02:00pm 25.6 20.9 1.0 20 11.7 WNW 15 26 8 14 1014.0 1013.5 0.0
11/01:30pm 25.7 20.5 2.4 22 11.4 W 19 26 10 14 1014.6 1014.0 0.0
11/01:00pm 25.0 20.8 3.6 25 10.6 WNW 15 24 8 13 1015.2 1014.6 0.0
11/12:30pm 24.3 20.1 3.6 26 10.2 WNW 15 24 8 13 1015.7 1015.1 0.0
11/12:00pm 23.4 20.5 4.4 29 9.5 WSW 9 17 5 9 1015.9 1015.3 0.0
11/11:30am 22.7 18.9 5.6 33 8.7 NNW 15 26 8 14 1016.2 1015.7 0.0
11/11:00am 21.6 18.7 6.3 37 7.8 WNW 11 20 6 11 1016.4 1015.9 0.0
11/10:30am 20.4 18.1 7.4 43 6.7 NNW 9 15 5 8 1016.5 1016.0 0.0
11/10:00am 19.6 18.0 8.9 50 5.7 N 7 13 4 7 1016.7 1016.2 0.0
11/09:30am 18.2 16.2 8.5 53 5.1 NNE 9 11 5 6 1016.8 1016.3 0.0
11/09:00am 16.9 15.5 8.8 59 4.2 NE 6 9 3 5 1017.1 1016.6 0.0
11/08:30am 15.1 13.2 9.2 68 3.1 E 9 13 5 7 1016.9 1016.4 0.0
11/08:00am 13.5 11.3 9.4 76 2.1 ENE 11 15 6 8 1016.5 1016.0 0.0
11/07:30am 12.7 10.3 8.8 77 2.0 E 11 11 6 6 1016.3 1015.8 0.0
11/07:00am 12.3 10.3 8.8 79 1.8 E 9 11 5 6 1016.2 1015.7 0.0
11/06:30am 11.2 8.8 8.6 84 1.3 ESE 11 13 6 7 1015.8 1015.2 0.0
11/06:00am 10.5 7.7 8.6 88 0.9 ESE 13 15 7 8 1015.5 1014.9 0.0
11/05:30am 10.3 7.5 8.4 88 0.9 ESE 13 15 7 8 1015.2 1014.6 0.0
11/05:00am 9.9 7.8 8.2 89 0.8 ESE 9 11 5 6 1014.9 1014.3 0.0
11/04:30am 10.2 8.1 9.6 96 0.3 ESE 11 11 6 6 1015.0 1014.4 0.0
11/04:00am 8.4 6.8 8.1 98 0.1 SE 6 7 3 4 1015.1 1014.5 0.0
11/03:30am 8.2 7.5 7.1 93 0.5 CALM 0 0 0 0 1015.1 1014.5 0.0
11/03:00am 9.6 7.7 7.5 87 1.0 ENE 7 9 4 5 1015.2 1014.6 0.0
11/02:30am 9.9 7.7 7.8 87 1.0 E 9 9 5 5 1015.4 1014.8 0.0
11/02:00am 10.4 8.1 7.6 83 1.4 ESE 9 11 5 6 1015.8 1015.2 0.0
11/01:30am 10.3 9.3 7.5 83 1.4 SE 2 6 1 3 1015.9 1015.3 0.0
11/01:00am 11.0 10.6 8.1 82 1.4 CALM 0 0 0 0 1015.9 1015.3 0.0
11/12:30am 11.0 9.8 7.9 81 1.5 E 4 6 2 3 1016.0 1015.5 0.0
11/12:00am 11.9 11.4 8.0 77 1.9 CALM 0 0 0 0 1016.0 1015.5 0.0
 
Date/Time
EDT
Temp
°C
App
Temp
°C
Dew
Point
°C
Rel
Hum
%
Delta-T
°C
Wind Press
QNH
hPa
Press
MSL
hPa
Rain since
9am
mm
Dir  Spd
km/h
Gust
km/h
Spd
kts
Gust
kts
10/11:30pm 12.3 10.7 8.0 75 2.1 E 6 7 3 4 1016.0 1015.5 0.0
10/11:00pm 11.6 11.1 7.7 77 1.9 CALM 0 0 0 0 1015.9 1015.3 0.0
10/10:30pm 13.1 11.6 8.6 74 2.3 ESE 6 6 3 3 1015.9 1015.3 0.0
10/10:00pm 14.1 12.4 7.6 65 3.2 ESE 6 7 3 4 1015.8 1015.2 0.0
10/09:30pm 13.4 11.5 7.6 68 2.9 SSE 7 7 4 4 1015.6 1015.0 0.0
10/09:00pm 14.5 12.2 7.3 62 3.6 S 9 11 5 6 1015.4 1014.8 0.0
10/08:30pm 15.7 12.9 7.0 56 4.3 S 11 13 6 7 1015.3 1014.7 0.0
10/08:00pm 17.2 14.3 6.4 49 5.4 SSW 11 13 6 7 1015.2 1014.6 0.0
10/07:30pm 19.2 16.2 6.0 42 6.6 SSW 11 13 6 7 1015.1 1014.5 0.0
10/07:00pm 20.7 16.5 5.5 37 7.6 SSW 17 24 9 13 1014.8 1014.2 0.0
10/06:30pm 21.8 16.6 5.3 34 8.3 SW 22 33 12 18 1014.6 1014.0 0.0
10/06:00pm 21.2 17.0 5.9 37 7.7 WSW 17 20 9 11 1014.6 1014.0 0.0
10/05:30pm 21.3 16.8 6.0 37 7.8 SW 19 28 10 15 1014.5 1013.9 0.0
10/05:00pm 21.6 16.2 6.3 37 7.8 SW 24 33 13 18 1014.4 1013.8 0.0
10/04:30pm 21.8 16.3 5.7 35 8.1 WSW 24 39 13 21 1014.3 1013.7 0.0
10/04:00pm 21.5 15.8 6.6 38 7.6 SW 26 35 14 19 1014.5 1013.9 0.0
10/03:30pm 22.5 17.3 7.1 37 8.0 WSW 24 39 13 21 1014.6 1014.0 0.0
10/03:00pm 21.6 16.4 5.5 35 8.1 SW 22 37 12 20 1014.8 1014.2 0.0
10/02:30pm 19.4 14.3 6.2 42 6.6 SW 22 32 12 17 1015.2 1014.6 0.0
10/02:00pm 19.3 13.8 5.7 41 6.8 WSW 24 39 13 21 1015.5 1014.9 0.0
10/01:30pm 18.6 13.1 5.8 43 6.3 SW 24 33 13 18 1015.9 1015.3 0.0
10/01:00pm 17.7 12.6 5.9 46 5.8 SW 22 33 12 18 1016.3 1015.8 0.0
10/12:30pm 17.8 12.1 6.7 48 5.6 WSW 26 39 14 21 1016.5 1016.0 0.0
10/12:00pm 16.6 11.0 5.6 48 5.3 WSW 24 35 13 19 1016.7 1016.2 0.0
10/11:30am 16.3 11.0 6.7 53 4.8 SW 24 33 13 18 1016.9 1016.4 0.0
10/11:00am 15.8 9.6 6.0 52 4.8 WSW 28 39 15 21 1017.1 1016.6 0.0
10/10:30am 14.3 9.2 6.2 58 3.9 WSW 22 32 12 17 1017.2 1016.7 0.0
10/10:00am 13.9 7.6 5.5 57 4.0 WSW 28 35 15 19 1017.1 1016.6 0.0
10/09:30am 13.0 6.3 5.4 60 3.6 SW 30 39 16 21 1016.9 1016.4 0.0
10/09:00am 13.2 6.6 5.9 61 3.5 SW 30 41 16 22 1016.7 1016.2 0.0
10/08:30am 12.9 6.7 6.0 63 3.3 SW 28 39 15 21 1016.4 1015.9 0.0
10/08:00am 12.4 5.4 6.2 66 3.0 SW 32 39 17 21 1015.9 1015.3 0.0
10/07:30am 11.2 4.9 5.7 69 2.6 WSW 28 33 15 18 1015.6 1015.0 0.0
10/07:00am 10.4 5.6 5.8 73 2.1 SW 20 30 11 16 1015.6 1015.0 0.0
10/06:30am 9.4 5.1 5.4 76 1.8 SW 17 28 9 15 1015.2 1014.6 0.0
10/06:00am 9.3 5.8 5.3 76 1.8 WSW 13 19 7 10 1014.8 1014.2 0.0
10/05:30am 9.6 3.6 5.2 74 2.0 SW 26 32 14 17 1014.4 1013.8 0.0

Other formats

Comma delimited format used in spreadsheet applications
http://www.bom.gov.au/fwo/IDN60801/IDN60801.94910.axf

JavaScript Object Notation format (JSON) in row-major order
http://www.bom.gov.au/fwo/IDN60801/IDN60801.94910.json

Data quality

Most of these data are generated automatically and are frequently updated. Quality checks on data are not normally performed. It is possible for incorrect values to appear. Refer to information at About Latest Weather Observations and please check the disclaimer before using these data.